Clarinda, Iowa
Current Conditions -  °F | °C
As of 2:55 AM on Saturday 25 Oct 2014 (Local Time) from KICL Reporting Station
Moderate Fog Moderate Fog  
Wind Chill: 48°   Ceiling: 200
Heat Index: 48°   Visibility: 0.5mi
Dew Point: 48°   Wind: 0mph
Humidity: 100%   Direction: NA
Pressure: 30.03"   Gusts: NA
Location:  40.74°N, 95.04°W
Report Text: KICL 250755Z AUTO 00000KT 1/2SM FG OVC002 09/09 A3003 RMK AO2
Loading
Personal Weather Stations






























Interactive Weather Map
Tropical Storm Tracking
New forecast layout! Learn more

10-Day Weather Forecast

Advertisements
Track Severe Weather on mobile